createdAt,value
2023-05-06T00:04:17.850Z,8.83
2023-05-06T00:09:20.028Z,8.86
2023-05-06T00:14:22.044Z,8.84
2023-05-06T00:19:24.398Z,8.81
2023-05-06T00:24:26.318Z,8.77
2023-05-06T00:29:28.317Z,8.75
2023-05-06T00:34:30.448Z,8.74
2023-05-06T00:39:32.455Z,8.72
2023-05-06T00:44:34.499Z,8.73
2023-05-06T00:49:36.516Z,8.69
2023-05-06T00:54:38.798Z,8.63
2023-05-06T00:59:40.931Z,8.62
2023-05-06T01:04:42.881Z,8.52
2023-05-06T01:10:13.750Z,8.53
2023-05-06T01:15:22.290Z,8.40
2023-05-06T01:20:25.519Z,8.32
2023-05-06T01:25:27.593Z,8.28
2023-05-06T01:30:36.199Z,8.20
2023-05-06T01:35:46.987Z,8.14
2023-05-06T01:40:54.590Z,8.03
2023-05-06T01:45:57.557Z,8.02
2023-05-06T01:50:59.676Z,7.98
2023-05-06T01:56:01.729Z,7.94
2023-05-06T02:06:20.411Z,7.76
2023-05-06T02:11:22.483Z,7.79
2023-05-06T02:16:28.708Z,7.74
2023-05-06T02:21:31.512Z,7.62
2023-05-06T02:26:33.544Z,7.63
2023-05-06T02:31:35.559Z,7.61
2023-05-06T02:36:37.598Z,7.53
2023-05-06T02:41:39.825Z,7.47
2023-05-06T02:46:43.924Z,7.44
2023-05-06T02:51:46.050Z,7.40
2023-05-06T02:56:48.080Z,7.40
2023-05-06T03:01:50.096Z,7.33
2023-05-06T03:06:52.125Z,7.36
2023-05-06T03:11:54.111Z,7.31
2023-05-06T03:16:56.254Z,7.30
2023-05-06T03:21:58.299Z,7.29
2023-05-06T03:27:00.385Z,7.23
2023-05-06T03:32:06.007Z,7.22
2023-05-06T03:37:08.100Z,7.17
2023-05-06T03:42:10.157Z,7.15
2023-05-06T03:47:12.233Z,7.17
2023-05-06T03:52:14.413Z,7.14
2023-05-06T03:57:17.041Z,7.11
2023-05-06T04:02:19.279Z,7.09
2023-05-06T04:07:21.094Z,7.14
2023-05-06T04:12:23.089Z,7.08
2023-05-06T04:17:25.130Z,7.10
2023-05-06T04:22:27.344Z,7.10
2023-05-06T04:27:30.080Z,7.11
2023-05-06T04:32:32.212Z,7.06
2023-05-06T04:37:34.223Z,7.10
2023-05-06T04:42:36.282Z,7.07
2023-05-06T04:47:38.365Z,7.10
2023-05-06T04:52:40.480Z,7.13
2023-05-06T04:57:42.501Z,7.11
2023-05-06T05:02:44.608Z,7.13
2023-05-06T05:07:46.717Z,7.16
2023-05-06T05:12:48.908Z,7.20
2023-05-06T05:17:51.253Z,7.28
2023-05-06T05:22:53.399Z,7.33
2023-05-06T05:27:55.390Z,7.35
2023-05-06T05:32:57.618Z,7.39
2023-05-06T05:37:59.785Z,7.46
2023-05-06T05:43:01.861Z,7.52
2023-05-06T05:48:04.451Z,7.58
2023-05-06T05:53:06.794Z,7.59
2023-05-06T05:58:11.649Z,7.71
2023-05-06T06:03:13.824Z,7.78
2023-05-06T06:08:17.747Z,7.84
2023-05-06T06:13:19.994Z,7.87
2023-05-06T06:18:22.250Z,7.90
2023-05-06T06:23:24.780Z,7.93
2023-05-06T06:28:27.058Z,8.01
2023-05-06T06:33:30.496Z,8.17
2023-05-06T06:38:32.727Z,8.25
2023-05-06T06:43:34.654Z,8.32
2023-05-06T06:48:36.735Z,8.44
2023-05-06T06:53:38.571Z,8.48
2023-05-06T06:58:40.887Z,8.56
2023-05-06T07:03:43.002Z,8.62
2023-05-06T07:08:45.211Z,8.76
2023-05-06T07:13:47.170Z,8.77
2023-05-06T07:18:50.459Z,8.76
2023-05-06T07:23:52.552Z,8.83
2023-05-06T07:28:54.523Z,8.87
2023-05-06T07:33:56.824Z,8.90
2023-05-06T07:38:58.960Z,9.00
2023-05-06T07:44:01.224Z,9.04
2023-05-06T07:49:03.204Z,9.16
2023-05-06T07:54:05.126Z,9.17
2023-05-06T07:59:07.128Z,9.15
2023-05-06T08:04:09.172Z,9.17
2023-05-06T08:09:16.982Z,9.17
2023-05-06T08:14:22.126Z,9.20
2023-05-06T08:19:24.218Z,9.23
2023-05-06T08:24:26.133Z,9.24
2023-05-06T08:29:28.762Z,9.23
2023-05-06T08:34:31.254Z,9.25
2023-05-06T08:39:33.377Z,9.25
2023-05-06T08:44:35.595Z,9.26
2023-05-06T08:49:38.055Z,9.27
2023-05-06T08:54:42.720Z,9.30
2023-05-06T08:59:46.082Z,9.31
2023-05-06T09:04:49.728Z,9.32
2023-05-06T09:09:52.898Z,9.33
2023-05-06T09:14:56.240Z,9.35
2023-05-06T09:19:58.613Z,9.34
2023-05-06T09:25:00.866Z,9.34
2023-05-06T09:30:08.218Z,9.32
2023-05-06T09:35:11.571Z,9.30
2023-05-06T09:40:14.686Z,9.30
2023-05-06T09:45:18.421Z,9.27
2023-05-06T09:50:23.041Z,9.23
2023-05-06T09:55:27.407Z,9.25
2023-05-06T10:00:31.762Z,9.27
2023-05-06T10:05:35.780Z,9.27
2023-05-06T10:10:40.539Z,9.27
2023-05-06T10:15:48.335Z,9.29
2023-05-06T10:20:53.930Z,9.32
2023-05-06T10:26:10.297Z,9.35
2023-05-06T10:31:14.294Z,9.38
2023-05-06T10:36:21.819Z,9.39
2023-05-06T10:41:29.388Z,9.43
2023-05-06T10:46:31.579Z,9.41
2023-05-06T10:51:34.759Z,9.43
2023-05-06T10:56:38.700Z,9.40
2023-05-06T11:01:45.176Z,9.44
2023-05-06T11:06:49.604Z,9.44
2023-05-06T11:12:03.380Z,9.45
2023-05-06T11:17:10.309Z,9.47
2023-05-06T11:22:41.687Z,9.49
2023-05-06T11:27:43.788Z,9.51
2023-05-06T11:32:47.245Z,9.53
2023-05-06T11:37:53.619Z,9.52
2023-05-06T11:42:56.631Z,9.57
2023-05-06T11:47:58.947Z,9.59
2023-05-06T11:53:02.409Z,9.62
2023-05-06T11:58:05.796Z,9.61
2023-05-06T12:03:15.397Z,9.62
2023-05-06T12:08:31.591Z,9.61
2023-05-06T12:13:38.185Z,9.55
2023-05-06T12:18:41.236Z,9.50
2023-05-06T12:23:59.838Z,9.45
2023-05-06T12:29:10.895Z,9.42
2023-05-06T12:34:18.431Z,9.36
2023-05-06T12:39:22.482Z,9.31
2023-05-06T12:44:41.088Z,9.28
2023-05-06T12:50:01.233Z,9.25
2023-05-06T12:55:03.255Z,9.20
2023-05-06T13:00:08.717Z,9.18
2023-05-06T13:05:11.040Z,9.13
2023-05-06T13:10:13.416Z,9.10
2023-05-06T13:15:16.142Z,9.07
2023-05-06T13:20:20.160Z,9.01
2023-05-06T13:25:22.870Z,9.00
2023-05-06T13:30:25.601Z,8.95
2023-05-06T13:35:28.730Z,8.93
2023-05-06T13:40:31.652Z,8.90
2023-05-06T13:45:35.278Z,8.87
2023-05-06T13:50:37.562Z,8.84
2023-05-06T13:55:41.656Z,8.82
2023-05-06T14:00:44.713Z,8.79
2023-05-06T14:05:46.812Z,8.76
2023-05-06T14:10:48.913Z,8.74
2023-05-06T14:15:51.208Z,8.71
2023-05-06T14:20:53.679Z,8.69
2023-05-06T14:25:56.705Z,8.67
2023-05-06T14:30:59.964Z,8.66
2023-05-06T14:36:03.735Z,8.65
2023-05-06T14:41:05.869Z,8.62
2023-05-06T14:46:08.676Z,8.60
2023-05-06T14:51:11.007Z,8.59
2023-05-06T14:56:13.157Z,8.55
2023-05-06T15:01:15.297Z,8.53
2023-05-06T15:06:17.469Z,8.50
2023-05-06T15:11:19.785Z,8.49
2023-05-06T15:16:22.427Z,8.46
2023-05-06T15:21:24.593Z,8.44
2023-05-06T15:26:31.739Z,8.39
2023-05-06T15:31:39.326Z,8.37
2023-05-06T15:36:42.073Z,8.35
2023-05-06T15:41:44.602Z,8.34
2023-05-06T15:46:50.107Z,8.30
2023-05-06T15:51:52.604Z,8.29
2023-05-06T15:56:55.370Z,8.26
2023-05-06T16:07:08.099Z,8.22
2023-05-06T16:12:12.651Z,8.19
2023-05-06T16:17:16.049Z,8.17
2023-05-06T16:22:18.149Z,8.14
2023-05-06T16:27:21.517Z,8.13
2023-05-06T16:32:24.300Z,8.12
2023-05-06T16:37:29.538Z,8.12
2023-05-06T16:42:33.189Z,8.12
2023-05-06T16:47:35.533Z,8.09
2023-05-06T16:52:38.671Z,8.07
2023-05-06T16:57:40.788Z,8.05
2023-05-06T17:02:43.054Z,8.02
2023-05-06T17:07:45.687Z,8.01
2023-05-06T17:12:48.018Z,8.00
2023-05-06T17:17:53.681Z,7.98
2023-05-06T17:22:55.911Z,7.94
2023-05-06T17:27:57.768Z,7.93
2023-05-06T17:33:00.156Z,7.91
2023-05-06T17:38:02.282Z,7.89
2023-05-06T17:43:04.600Z,7.87
2023-05-06T17:48:07.039Z,7.83
2023-05-06T17:53:09.308Z,7.83
2023-05-06T17:58:11.214Z,7.81
2023-05-06T18:03:13.592Z,7.79
2023-05-06T18:08:15.894Z,7.77
2023-05-06T18:13:17.931Z,7.75
2023-05-06T18:18:20.505Z,7.72
2023-05-06T18:23:23.145Z,7.71
2023-05-06T18:28:25.605Z,7.66
2023-05-06T18:33:28.458Z,7.64
2023-05-06T18:38:31.087Z,7.63
2023-05-06T18:43:33.634Z,7.60
2023-05-06T18:48:36.827Z,7.59
2023-05-06T18:53:39.535Z,7.56
2023-05-06T18:58:42.315Z,7.54
2023-05-06T19:03:44.621Z,7.50
2023-05-06T19:08:47.262Z,7.50
2023-05-06T19:13:58.599Z,7.47
2023-05-06T19:19:03.276Z,7.45
2023-05-06T19:24:07.338Z,7.43
2023-05-06T19:29:10.294Z,7.40
2023-05-06T19:34:14.284Z,7.38
2023-05-06T19:39:16.938Z,7.38
2023-05-06T19:44:20.173Z,7.35
2023-05-06T19:49:22.487Z,7.32
2023-05-06T19:54:25.706Z,7.33
2023-05-06T19:59:28.917Z,7.31
2023-05-06T20:04:31.384Z,7.26
2023-05-06T20:09:33.814Z,7.25
2023-05-06T20:14:36.422Z,7.23
2023-05-06T20:19:40.067Z,7.22
2023-05-06T20:24:43.407Z,7.19
2023-05-06T20:29:45.954Z,7.19
2023-05-06T20:34:48.341Z,7.15
2023-05-06T20:39:50.202Z,7.13
2023-05-06T20:44:52.705Z,7.12
2023-05-06T20:49:56.068Z,7.11
2023-05-06T20:54:58.649Z,7.08
2023-05-06T21:00:00.945Z,7.06
2023-05-06T21:05:03.285Z,7.04
2023-05-06T21:10:06.280Z,7.04
2023-05-06T21:15:09.502Z,7.04
2023-05-06T21:20:12.612Z,7.01
2023-05-06T21:25:15.266Z,7.00
2023-05-06T21:30:17.846Z,6.98
2023-05-06T21:35:20.145Z,6.96
2023-05-06T21:40:22.210Z,6.96
2023-05-06T21:45:24.310Z,6.93
2023-05-06T21:50:27.228Z,6.94
2023-05-06T21:55:29.344Z,6.91
2023-05-06T22:00:31.419Z,6.89
2023-05-06T22:05:33.502Z,6.89
2023-05-06T22:10:35.773Z,6.86
2023-05-06T22:15:37.966Z,6.85
2023-05-06T22:20:41.987Z,6.83
2023-05-06T22:25:44.841Z,6.84
2023-05-06T22:30:47.353Z,6.81
2023-05-06T22:35:49.488Z,6.80
2023-05-06T22:40:51.741Z,6.80
2023-05-06T22:45:53.883Z,6.78
2023-05-06T22:50:56.725Z,6.76
2023-05-06T22:55:59.058Z,6.75
2023-05-06T23:01:02.215Z,6.72
2023-05-06T23:06:06.333Z,6.73
2023-05-06T23:11:08.417Z,6.70
2023-05-06T23:16:10.556Z,6.68
2023-05-06T23:21:12.885Z,6.69
2023-05-06T23:26:14.953Z,6.68
2023-05-06T23:31:17.107Z,6.67
2023-05-06T23:36:19.365Z,6.66
2023-05-06T23:41:21.560Z,6.65
2023-05-06T23:46:23.509Z,6.63
2023-05-06T23:51:25.646Z,6.62
2023-05-06T23:56:27.920Z,6.60
